sensor_id;sensor_type;location;lat;lon;timestamp;temperature;humidity
8420;DHT22;4247;48.550;8.822;2023-02-26T00:02:07;0.10;99.90
8420;DHT22;4247;48.550;8.822;2023-02-26T00:04:36;0.10;99.90
8420;DHT22;4247;48.550;8.822;2023-02-26T00:07:03;0.10;99.90
8420;DHT22;4247;48.550;8.822;2023-02-26T00:09:31;0.00;99.90
8420;DHT22;4247;48.550;8.822;2023-02-26T00:11:58;0.00;99.90
8420;DHT22;4247;48.550;8.822;2023-02-26T00:14:26;0.00;99.90
8420;DHT22;4247;48.550;8.822;2023-02-26T00:17:12;0.00;99.90
8420;DHT22;4247;48.550;8.822;2023-02-26T00:19:42;0.00;99.90
8420;DHT22;4247;48.550;8.822;2023-02-26T00:22:09;0.00;99.90
8420;DHT22;4247;48.550;8.822;2023-02-26T00:24:36;0.00;99.90
8420;DHT22;4247;48.550;8.822;2023-02-26T00:27:03;-0.10;99.90
8420;DHT22;4247;48.550;8.822;2023-02-26T00:29:30;-0.10;99.90
8420;DHT22;4247;48.550;8.822;2023-02-26T00:31:57;-0.10;99.90
8420;DHT22;4247;48.550;8.822;2023-02-26T00:34:25;-0.10;99.90
8420;DHT22;4247;48.550;8.822;2023-02-26T00:37:04;-0.10;99.90
8420;DHT22;4247;48.550;8.822;2023-02-26T00:39:43;-0.20;99.90
8420;DHT22;4247;48.550;8.822;2023-02-26T00:42:12;-0.20;99.90
8420;DHT22;4247;48.550;8.822;2023-02-26T00:44:40;-0.30;99.90
8420;DHT22;4247;48.550;8.822;2023-02-26T00:47:10;-0.30;99.90
8420;DHT22;4247;48.550;8.822;2023-02-26T00:49:48;-0.30;99.90
8420;DHT22;4247;48.550;8.822;2023-02-26T00:52:26;-0.40;99.90
8420;DHT22;4247;48.550;8.822;2023-02-26T00:54:54;-0.50;99.90
8420;DHT22;4247;48.550;8.822;2023-02-26T00:57:21;-0.50;99.90
8420;DHT22;4247;48.550;8.822;2023-02-26T00:59:48;-0.50;99.90
8420;DHT22;4247;48.550;8.822;2023-02-26T01:02:14;-0.50;99.90
8420;DHT22;4247;48.550;8.822;2023-02-26T01:04:41;-0.50;99.90
8420;DHT22;4247;48.550;8.822;2023-02-26T01:07:09;-0.50;99.90
8420;DHT22;4247;48.550;8.822;2023-02-26T01:09:38;-0.50;99.90
8420;DHT22;4247;48.550;8.822;2023-02-26T01:12:07;-0.60;99.90
8420;DHT22;4247;48.550;8.822;2023-02-26T01:14:35;-0.60;99.90
8420;DHT22;4247;48.550;8.822;2023-02-26T01:17:07;-0.60;99.90
8420;DHT22;4247;48.550;8.822;2023-02-26T01:19:41;-0.60;99.90
8420;DHT22;4247;48.550;8.822;2023-02-26T01:22:17;-0.60;99.90
8420;DHT22;4247;48.550;8.822;2023-02-26T01:24:47;-0.70;99.90
8420;DHT22;4247;48.550;8.822;2023-02-26T01:27:15;-0.70;99.90
8420;DHT22;4247;48.550;8.822;2023-02-26T01:29:41;-0.70;99.90
8420;DHT22;4247;48.550;8.822;2023-02-26T01:32:14;-0.70;99.90
8420;DHT22;4247;48.550;8.822;2023-02-26T01:34:46;-0.70;99.90
8420;DHT22;4247;48.550;8.822;2023-02-26T01:37:21;-0.70;99.90
8420;DHT22;4247;48.550;8.822;2023-02-26T01:40:13;-0.70;99.90
8420;DHT22;4247;48.550;8.822;2023-02-26T01:42:43;-0.80;99.90
8420;DHT22;4247;48.550;8.822;2023-02-26T01:45:15;-0.70;99.90
8420;DHT22;4247;48.550;8.822;2023-02-26T01:47:47;-0.80;99.90
8420;DHT22;4247;48.550;8.822;2023-02-26T01:50:18;-0.80;99.90
8420;DHT22;4247;48.550;8.822;2023-02-26T01:53:17;-0.80;99.90
8420;DHT22;4247;48.550;8.822;2023-02-26T01:55:49;-0.90;99.90
8420;DHT22;4247;48.550;8.822;2023-02-26T01:58:17;-0.90;99.90
8420;DHT22;4247;48.550;8.822;2023-02-26T02:00:45;-1.00;99.90
8420;DHT22;4247;48.550;8.822;2023-02-26T02:03:12;-1.00;99.90
8420;DHT22;4247;48.550;8.822;2023-02-26T02:05:41;-1.00;99.90
8420;DHT22;4247;48.550;8.822;2023-02-26T02:08:09;-1.00;99.90
8420;DHT22;4247;48.550;8.822;2023-02-26T02:10:40;-1.00;99.90
8420;DHT22;4247;48.550;8.822;2023-02-26T02:13:27;-1.10;99.90
8420;DHT22;4247;48.550;8.822;2023-02-26T02:16:07;-1.00;99.90
8420;DHT22;4247;48.550;8.822;2023-02-26T02:18:42;-1.10;99.90
8420;DHT22;4247;48.550;8.822;2023-02-26T02:21:29;-1.10;99.90
8420;DHT22;4247;48.550;8.822;2023-02-26T02:24:10;-1.10;99.90
8420;DHT22;4247;48.550;8.822;2023-02-26T02:26:51;-1.10;99.90
8420;DHT22;4247;48.550;8.822;2023-02-26T02:29:40;-1.10;99.90
8420;DHT22;4247;48.550;8.822;2023-02-26T02:32:15;-1.10;99.90
8420;DHT22;4247;48.550;8.822;2023-02-26T02:34:46;-1.10;99.90
8420;DHT22;4247;48.550;8.822;2023-02-26T02:37:18;-1.20;99.90
8420;DHT22;4247;48.550;8.822;2023-02-26T02:39:49;-1.20;99.90
8420;DHT22;4247;48.550;8.822;2023-02-26T02:42:22;-1.20;99.90
8420;DHT22;4247;48.550;8.822;2023-02-26T02:44:54;-1.20;99.90
8420;DHT22;4247;48.550;8.822;2023-02-26T02:47:24;-1.20;99.90
8420;DHT22;4247;48.550;8.822;2023-02-26T02:49:55;-1.20;99.90
8420;DHT22;4247;48.550;8.822;2023-02-26T02:52:28;-1.20;99.90
8420;DHT22;4247;48.550;8.822;2023-02-26T02:55:01;-1.20;99.90
8420;DHT22;4247;48.550;8.822;2023-02-26T02:57:32;-1.20;99.90
8420;DHT22;4247;48.550;8.822;2023-02-26T03:00:02;-1.20;99.90
8420;DHT22;4247;48.550;8.822;2023-02-26T03:02:35;-1.20;99.90
8420;DHT22;4247;48.550;8.822;2023-02-26T03:05:03;-1.20;99.90
8420;DHT22;4247;48.550;8.822;2023-02-26T03:07:33;-1.20;99.90
8420;DHT22;4247;48.550;8.822;2023-02-26T03:10:02;-1.30;99.90
8420;DHT22;4247;48.550;8.822;2023-02-26T03:12:31;-1.30;99.90
8420;DHT22;4247;48.550;8.822;2023-02-26T03:14:58;-1.30;99.90
8420;DHT22;4247;48.550;8.822;2023-02-26T03:17:30;-1.40;99.90
8420;DHT22;4247;48.550;8.822;2023-02-26T03:20:08;-1.50;99.90
8420;DHT22;4247;48.550;8.822;2023-02-26T03:22:41;-1.50;99.90
8420;DHT22;4247;48.550;8.822;2023-02-26T03:25:13;-1.50;99.90
8420;DHT22;4247;48.550;8.822;2023-02-26T03:27:48;-1.60;99.90
8420;DHT22;4247;48.550;8.822;2023-02-26T03:30:21;-1.60;99.90
8420;DHT22;4247;48.550;8.822;2023-02-26T03:32:58;-1.60;99.90
8420;DHT22;4247;48.550;8.822;2023-02-26T03:35:32;-1.60;99.90
8420;DHT22;4247;48.550;8.822;2023-02-26T03:38:04;-1.60;99.90
8420;DHT22;4247;48.550;8.822;2023-02-26T03:40:36;-1.70;99.90
8420;DHT22;4247;48.550;8.822;2023-02-26T03:43:06;-1.70;99.90
8420;DHT22;4247;48.550;8.822;2023-02-26T03:45:37;-1.80;99.90
8420;DHT22;4247;48.550;8.822;2023-02-26T03:48:07;-1.80;99.90
8420;DHT22;4247;48.550;8.822;2023-02-26T03:50:39;-1.80;99.90
8420;DHT22;4247;48.550;8.822;2023-02-26T03:53:09;-1.80;99.90
8420;DHT22;4247;48.550;8.822;2023-02-26T03:55:40;-1.80;99.90
8420;DHT22;4247;48.550;8.822;2023-02-26T03:58:08;-1.80;99.90
8420;DHT22;4247;48.550;8.822;2023-02-26T04:00:36;-1.80;99.90
8420;DHT22;4247;48.550;8.822;2023-02-26T04:03:08;-1.90;99.90
8420;DHT22;4247;48.550;8.822;2023-02-26T04:05:42;-1.90;99.90
8420;DHT22;4247;48.550;8.822;2023-02-26T04:08:10;-1.90;99.90
8420;DHT22;4247;48.550;8.822;2023-02-26T04:10:40;-1.90;99.90
8420;DHT22;4247;48.550;8.822;2023-02-26T04:13:08;-1.90;99.90
8420;DHT22;4247;48.550;8.822;2023-02-26T04:15:35;-1.90;99.90
8420;DHT22;4247;48.550;8.822;2023-02-26T04:18:02;-1.90;99.90
8420;DHT22;4247;48.550;8.822;2023-02-26T04:20:29;-1.90;99.90
8420;DHT22;4247;48.550;8.822;2023-02-26T04:22:57;-1.90;99.90
8420;DHT22;4247;48.550;8.822;2023-02-26T04:25:24;-1.90;99.90
8420;DHT22;4247;48.550;8.822;2023-02-26T04:27:51;-1.90;99.90
8420;DHT22;4247;48.550;8.822;2023-02-26T04:30:17;-2.00;99.90
8420;DHT22;4247;48.550;8.822;2023-02-26T04:32:44;-2.00;99.90
8420;DHT22;4247;48.550;8.822;2023-02-26T04:35:11;-2.00;99.90
8420;DHT22;4247;48.550;8.822;2023-02-26T04:37:38;-2.00;99.90
8420;DHT22;4247;48.550;8.822;2023-02-26T04:40:07;-2.00;99.90
8420;DHT22;4247;48.550;8.822;2023-02-26T04:42:34;-2.00;99.90
8420;DHT22;4247;48.550;8.822;2023-02-26T04:45:00;-2.00;99.90
8420;DHT22;4247;48.550;8.822;2023-02-26T04:47:28;-2.10;99.90
8420;DHT22;4247;48.550;8.822;2023-02-26T04:49:55;-2.10;99.90
8420;DHT22;4247;48.550;8.822;2023-02-26T04:52:21;-2.10;99.90
8420;DHT22;4247;48.550;8.822;2023-02-26T04:54:48;-2.10;99.90
8420;DHT22;4247;48.550;8.822;2023-02-26T04:57:16;-2.10;99.90
8420;DHT22;4247;48.550;8.822;2023-02-26T04:59:43;-2.10;99.90
8420;DHT22;4247;48.550;8.822;2023-02-26T05:02:09;-2.20;99.90
8420;DHT22;4247;48.550;8.822;2023-02-26T05:04:36;-2.20;99.90
8420;DHT22;4247;48.550;8.822;2023-02-26T05:07:03;-2.20;99.90
8420;DHT22;4247;48.550;8.822;2023-02-26T05:09:29;-2.20;99.90
8420;DHT22;4247;48.550;8.822;2023-02-26T05:11:56;-2.30;99.90
8420;DHT22;4247;48.550;8.822;2023-02-26T05:14:24;-2.40;99.90
8420;DHT22;4247;48.550;8.822;2023-02-26T05:16:51;-2.40;99.90
8420;DHT22;4247;48.550;8.822;2023-02-26T05:19:17;-2.40;99.90
8420;DHT22;4247;48.550;8.822;2023-02-26T05:21:44;-2.40;99.90
8420;DHT22;4247;48.550;8.822;2023-02-26T05:24:11;-2.40;99.90
8420;DHT22;4247;48.550;8.822;2023-02-26T05:26:37;-2.40;99.90
8420;DHT22;4247;48.550;8.822;2023-02-26T05:29:04;-2.40;99.90
8420;DHT22;4247;48.550;8.822;2023-02-26T05:31:32;-2.40;99.90
8420;DHT22;4247;48.550;8.822;2023-02-26T05:33:59;-2.40;99.90
8420;DHT22;4247;48.550;8.822;2023-02-26T05:36:26;-2.40;99.90
8420;DHT22;4247;48.550;8.822;2023-02-26T05:38:52;-2.40;99.90
8420;DHT22;4247;48.550;8.822;2023-02-26T05:41:19;-2.30;99.90
8420;DHT22;4247;48.550;8.822;2023-02-26T05:43:46;-2.30;99.90
8420;DHT22;4247;48.550;8.822;2023-02-26T05:46:12;-2.20;99.90
8420;DHT22;4247;48.550;8.822;2023-02-26T05:48:40;-2.20;99.90
8420;DHT22;4247;48.550;8.822;2023-02-26T05:51:07;-2.20;99.90
8420;DHT22;4247;48.550;8.822;2023-02-26T05:53:34;-2.10;99.90
8420;DHT22;4247;48.550;8.822;2023-02-26T05:56:01;-2.10;99.90
8420;DHT22;4247;48.550;8.822;2023-02-26T05:58:30;-2.10;99.90
8420;DHT22;4247;48.550;8.822;2023-02-26T06:00:58;-2.10;99.90
8420;DHT22;4247;48.550;8.822;2023-02-26T06:03:25;-2.10;99.90
8420;DHT22;4247;48.550;8.822;2023-02-26T06:05:53;-2.10;99.90
8420;DHT22;4247;48.550;8.822;2023-02-26T06:08:20;-2.10;99.90
8420;DHT22;4247;48.550;8.822;2023-02-26T06:10:48;-2.20;99.90
8420;DHT22;4247;48.550;8.822;2023-02-26T06:13:15;-2.10;99.90
8420;DHT22;4247;48.550;8.822;2023-02-26T06:15:42;-2.20;99.90
8420;DHT22;4247;48.550;8.822;2023-02-26T06:18:09;-2.20;99.90
8420;DHT22;4247;48.550;8.822;2023-02-26T06:20:35;-2.20;99.90
8420;DHT22;4247;48.550;8.822;2023-02-26T06:23:03;-2.20;99.90
8420;DHT22;4247;48.550;8.822;2023-02-26T06:25:30;-2.30;99.90
8420;DHT22;4247;48.550;8.822;2023-02-26T06:27:57;-2.30;99.90
8420;DHT22;4247;48.550;8.822;2023-02-26T06:30:24;-2.40;99.90
8420;DHT22;4247;48.550;8.822;2023-02-26T06:32:50;-2.40;99.90
8420;DHT22;4247;48.550;8.822;2023-02-26T06:35:18;-2.40;99.90
8420;DHT22;4247;48.550;8.822;2023-02-26T06:37:44;-2.40;99.90
8420;DHT22;4247;48.550;8.822;2023-02-26T06:40:13;-2.40;99.90
8420;DHT22;4247;48.550;8.822;2023-02-26T06:42:39;-2.40;99.90
8420;DHT22;4247;48.550;8.822;2023-02-26T06:45:07;-2.40;99.90
8420;DHT22;4247;48.550;8.822;2023-02-26T06:47:34;-2.40;99.90
8420;DHT22;4247;48.550;8.822;2023-02-26T06:50:00;-2.50;99.90
8420;DHT22;4247;48.550;8.822;2023-02-26T06:52:28;-2.50;99.90
8420;DHT22;4247;48.550;8.822;2023-02-26T06:54:55;-2.50;99.90
8420;DHT22;4247;48.550;8.822;2023-02-26T06:57:23;-2.50;99.90
8420;DHT22;4247;48.550;8.822;2023-02-26T06:59:50;-2.60;99.90
8420;DHT22;4247;48.550;8.822;2023-02-26T07:02:19;-2.50;99.90
8420;DHT22;4247;48.550;8.822;2023-02-26T07:04:46;-2.60;99.90
8420;DHT22;4247;48.550;8.822;2023-02-26T07:07:13;-2.60;99.90
8420;DHT22;4247;48.550;8.822;2023-02-26T07:09:40;-2.50;99.90
8420;DHT22;4247;48.550;8.822;2023-02-26T07:12:07;-2.50;99.90
8420;DHT22;4247;48.550;8.822;2023-02-26T07:14:35;-2.50;99.90
8420;DHT22;4247;48.550;8.822;2023-02-26T07:17:02;-2.50;99.90
8420;DHT22;4247;48.550;8.822;2023-02-26T07:19:29;-2.50;99.90
8420;DHT22;4247;48.550;8.822;2023-02-26T07:21:55;-2.40;99.90
8420;DHT22;4247;48.550;8.822;2023-02-26T07:24:22;-2.40;99.90
8420;DHT22;4247;48.550;8.822;2023-02-26T07:26:49;-2.30;99.90
8420;DHT22;4247;48.550;8.822;2023-02-26T07:29:16;-2.30;99.90
8420;DHT22;4247;48.550;8.822;2023-02-26T07:31:44;-2.20;99.90
8420;DHT22;4247;48.550;8.822;2023-02-26T07:34:11;-2.10;99.90
8420;DHT22;4247;48.550;8.822;2023-02-26T07:36:38;-2.00;99.90
8420;DHT22;4247;48.550;8.822;2023-02-26T07:39:04;-2.00;99.90
8420;DHT22;4247;48.550;8.822;2023-02-26T07:41:31;-1.90;99.90
8420;DHT22;4247;48.550;8.822;2023-02-26T07:43:57;-1.90;99.90
8420;DHT22;4247;48.550;8.822;2023-02-26T07:46:24;-1.90;99.90
8420;DHT22;4247;48.550;8.822;2023-02-26T07:48:52;-1.80;99.90
8420;DHT22;4247;48.550;8.822;2023-02-26T07:51:19;-1.70;99.90
8420;DHT22;4247;48.550;8.822;2023-02-26T07:53:46;-1.70;99.90
8420;DHT22;4247;48.550;8.822;2023-02-26T07:56:12;-1.60;99.90
8420;DHT22;4247;48.550;8.822;2023-02-26T07:58:39;-1.50;99.90
8420;DHT22;4247;48.550;8.822;2023-02-26T08:01:06;-1.50;99.90
8420;DHT22;4247;48.550;8.822;2023-02-26T08:03:32;-1.40;99.90
8420;DHT22;4247;48.550;8.822;2023-02-26T08:06:00;-1.20;99.90
8420;DHT22;4247;48.550;8.822;2023-02-26T08:08:27;-1.20;99.90
8420;DHT22;4247;48.550;8.822;2023-02-26T08:10:54;-1.30;99.90
8420;DHT22;4247;48.550;8.822;2023-02-26T08:13:20;-1.20;99.90
8420;DHT22;4247;48.550;8.822;2023-02-26T08:15:47;-1.10;99.90
8420;DHT22;4247;48.550;8.822;2023-02-26T08:18:14;-1.20;99.90
8420;DHT22;4247;48.550;8.822;2023-02-26T08:20:41;-1.20;99.90
8420;DHT22;4247;48.550;8.822;2023-02-26T08:23:09;-1.10;99.90
8420;DHT22;4247;48.550;8.822;2023-02-26T08:25:35;-1.00;99.90
8420;DHT22;4247;48.550;8.822;2023-02-26T08:28:02;-1.10;99.90
8420;DHT22;4247;48.550;8.822;2023-02-26T08:30:29;-1.10;99.90
8420;DHT22;4247;48.550;8.822;2023-02-26T08:32:56;-1.10;99.90
8420;DHT22;4247;48.550;8.822;2023-02-26T08:35:23;-0.90;99.90
8420;DHT22;4247;48.550;8.822;2023-02-26T08:37:50;-0.90;99.90
8420;DHT22;4247;48.550;8.822;2023-02-26T08:40:18;-0.90;99.90
8420;DHT22;4247;48.550;8.822;2023-02-26T08:42:45;-0.80;99.90
8420;DHT22;4247;48.550;8.822;2023-02-26T08:45:12;-0.80;99.90
8420;DHT22;4247;48.550;8.822;2023-02-26T08:47:39;-1.00;99.90
8420;DHT22;4247;48.550;8.822;2023-02-26T08:50:08;-1.00;99.90
8420;DHT22;4247;48.550;8.822;2023-02-26T08:52:35;-0.80;99.90
8420;DHT22;4247;48.550;8.822;2023-02-26T08:55:03;-0.70;99.90
8420;DHT22;4247;48.550;8.822;2023-02-26T08:57:31;-0.70;99.90
8420;DHT22;4247;48.550;8.822;2023-02-26T08:59:58;-0.80;99.90
8420;DHT22;4247;48.550;8.822;2023-02-26T09:02:24;-0.80;99.90
8420;DHT22;4247;48.550;8.822;2023-02-26T09:04:51;-0.80;99.90
8420;DHT22;4247;48.550;8.822;2023-02-26T09:07:18;-0.80;99.90
8420;DHT22;4247;48.550;8.822;2023-02-26T09:09:44;-0.80;99.90
8420;DHT22;4247;48.550;8.822;2023-02-26T09:12:11;-0.80;99.90
8420;DHT22;4247;48.550;8.822;2023-02-26T09:14:39;-0.70;99.90
8420;DHT22;4247;48.550;8.822;2023-02-26T09:17:06;-0.80;99.90
8420;DHT22;4247;48.550;8.822;2023-02-26T09:19:33;-0.70;99.90
8420;DHT22;4247;48.550;8.822;2023-02-26T09:22:00;-0.80;99.90
8420;DHT22;4247;48.550;8.822;2023-02-26T09:24:26;-0.70;99.90
8420;DHT22;4247;48.550;8.822;2023-02-26T09:26:53;-0.90;99.90
8420;DHT22;4247;48.550;8.822;2023-02-26T09:29:20;-1.00;99.90
8420;DHT22;4247;48.550;8.822;2023-02-26T09:31:48;-1.00;99.90
8420;DHT22;4247;48.550;8.822;2023-02-26T09:34:15;-1.00;99.90
8420;DHT22;4247;48.550;8.822;2023-02-26T09:36:43;-1.00;99.90
8420;DHT22;4247;48.550;8.822;2023-02-26T09:39:11;-1.00;99.90
8420;DHT22;4247;48.550;8.822;2023-02-26T09:41:40;-1.00;99.90
8420;DHT22;4247;48.550;8.822;2023-02-26T09:44:13;-1.00;99.90
8420;DHT22;4247;48.550;8.822;2023-02-26T09:46:49;-0.90;99.90
8420;DHT22;4247;48.550;8.822;2023-02-26T09:49:25;-0.90;99.90
8420;DHT22;4247;48.550;8.822;2023-02-26T09:51:57;-0.90;99.90
8420;DHT22;4247;48.550;8.822;2023-02-26T09:54:29;-0.90;99.90
8420;DHT22;4247;48.550;8.822;2023-02-26T09:56:59;-0.80;99.90
8420;DHT22;4247;48.550;8.822;2023-02-26T09:59:29;-0.80;99.90
8420;DHT22;4247;48.550;8.822;2023-02-26T10:02:03;-0.80;99.90
8420;DHT22;4247;48.550;8.822;2023-02-26T10:04:44;-0.80;99.90
8420;DHT22;4247;48.550;8.822;2023-02-26T10:07:20;-0.90;99.90
8420;DHT22;4247;48.550;8.822;2023-02-26T10:09:59;-0.80;99.90
8420;DHT22;4247;48.550;8.822;2023-02-26T10:12:30;-0.80;99.90
8420;DHT22;4247;48.550;8.822;2023-02-26T10:15:02;-0.80;99.90
8420;DHT22;4247;48.550;8.822;2023-02-26T10:17:34;-0.80;99.90
8420;DHT22;4247;48.550;8.822;2023-02-26T10:20:10;-0.80;99.90
8420;DHT22;4247;48.550;8.822;2023-02-26T10:22:43;-0.70;99.90
8420;DHT22;4247;48.550;8.822;2023-02-26T10:25:15;-0.80;99.90
8420;DHT22;4247;48.550;8.822;2023-02-26T10:27:50;-0.80;99.90
8420;DHT22;4247;48.550;8.822;2023-02-26T10:30:24;-0.90;99.90
8420;DHT22;4247;48.550;8.822;2023-02-26T10:33:00;-0.80;99.90
8420;DHT22;4247;48.550;8.822;2023-02-26T10:35:32;-0.80;99.90
8420;DHT22;4247;48.550;8.822;2023-02-26T10:38:08;-0.70;99.90
8420;DHT22;4247;48.550;8.822;2023-02-26T10:40:41;-0.80;99.90
8420;DHT22;4247;48.550;8.822;2023-02-26T10:43:13;-0.80;99.90
8420;DHT22;4247;48.550;8.822;2023-02-26T10:45:50;-0.70;99.90
8420;DHT22;4247;48.550;8.822;2023-02-26T10:48:35;-0.60;99.90
8420;DHT22;4247;48.550;8.822;2023-02-26T10:51:11;-0.50;99.90
8420;DHT22;4247;48.550;8.822;2023-02-26T10:53:38;-0.30;99.90
8420;DHT22;4247;48.550;8.822;2023-02-26T10:56:10;-0.20;99.90
8420;DHT22;4247;48.550;8.822;2023-02-26T10:58:39;-0.20;99.90
8420;DHT22;4247;48.550;8.822;2023-02-26T11:01:12;-0.20;99.90
8420;DHT22;4247;48.550;8.822;2023-02-26T11:03:43;-0.20;99.90
8420;DHT22;4247;48.550;8.822;2023-02-26T11:06:16;-0.20;99.90
8420;DHT22;4247;48.550;8.822;2023-02-26T11:08:46;-0.20;99.90
8420;DHT22;4247;48.550;8.822;2023-02-26T11:11:40;-0.20;99.90
8420;DHT22;4247;48.550;8.822;2023-02-26T11:14:07;-0.20;99.90
8420;DHT22;4247;48.550;8.822;2023-02-26T11:16:34;-0.10;99.90
8420;DHT22;4247;48.550;8.822;2023-02-26T11:19:04;-0.10;99.90
8420;DHT22;4247;48.550;8.822;2023-02-26T11:21:37;-0.10;99.90
8420;DHT22;4247;48.550;8.822;2023-02-26T11:24:06;-0.10;99.90
8420;DHT22;4247;48.550;8.822;2023-02-26T11:26:35;-0.10;99.90
8420;DHT22;4247;48.550;8.822;2023-02-26T11:29:03;-0.20;99.90
8420;DHT22;4247;48.550;8.822;2023-02-26T11:31:31;0.00;99.90
8420;DHT22;4247;48.550;8.822;2023-02-26T11:34:01;0.00;99.90
8420;DHT22;4247;48.550;8.822;2023-02-26T11:36:32;-0.10;99.90
8420;DHT22;4247;48.550;8.822;2023-02-26T11:39:02;0.00;99.90
8420;DHT22;4247;48.550;8.822;2023-02-26T11:41:29;0.10;99.90
8420;DHT22;4247;48.550;8.822;2023-02-26T11:44:04;0.10;99.90
8420;DHT22;4247;48.550;8.822;2023-02-26T11:46:38;0.20;99.90
8420;DHT22;4247;48.550;8.822;2023-02-26T11:49:05;0.20;99.90
8420;DHT22;4247;48.550;8.822;2023-02-26T11:51:33;0.30;99.90
8420;DHT22;4247;48.550;8.822;2023-02-26T11:54:00;0.30;99.90
8420;DHT22;4247;48.550;8.822;2023-02-26T11:56:31;0.30;99.90
8420;DHT22;4247;48.550;8.822;2023-02-26T11:59:06;0.30;99.90
8420;DHT22;4247;48.550;8.822;2023-02-26T12:01:35;0.40;99.90
8420;DHT22;4247;48.550;8.822;2023-02-26T12:04:02;0.30;99.90
8420;DHT22;4247;48.550;8.822;2023-02-26T12:06:30;0.40;99.90
8420;DHT22;4247;48.550;8.822;2023-02-26T12:08:58;0.30;99.90
8420;DHT22;4247;48.550;8.822;2023-02-26T12:11:46;0.30;99.90
8420;DHT22;4247;48.550;8.822;2023-02-26T12:14:40;0.30;99.90
8420;DHT22;4247;48.550;8.822;2023-02-26T12:17:23;0.30;99.90
8420;DHT22;4247;48.550;8.822;2023-02-26T12:19:56;0.30;99.90
8420;DHT22;4247;48.550;8.822;2023-02-26T12:22:34;0.40;99.90
8420;DHT22;4247;48.550;8.822;2023-02-26T12:25:20;0.30;99.90
8420;DHT22;4247;48.550;8.822;2023-02-26T12:28:26;0.20;99.90
8420;DHT22;4247;48.550;8.822;2023-02-26T12:31:13;0.20;99.90
8420;DHT22;4247;48.550;8.822;2023-02-26T12:33:51;0.20;99.90
8420;DHT22;4247;48.550;8.822;2023-02-26T12:36:29;0.30;99.90
8420;DHT22;4247;48.550;8.822;2023-02-26T12:39:06;0.30;99.90
8420;DHT22;4247;48.550;8.822;2023-02-26T12:41:47;0.20;99.90
8420;DHT22;4247;48.550;8.822;2023-02-26T12:44:49;0.20;99.90
8420;DHT22;4247;48.550;8.822;2023-02-26T12:47:30;0.20;99.90
8420;DHT22;4247;48.550;8.822;2023-02-26T12:50:15;0.30;99.90
8420;DHT22;4247;48.550;8.822;2023-02-26T12:53:04;0.20;99.90
8420;DHT22;4247;48.550;8.822;2023-02-26T12:55:47;0.20;99.90
8420;DHT22;4247;48.550;8.822;2023-02-26T13:01:22;0.00;99.90
8420;DHT22;4247;48.550;8.822;2023-02-26T13:04:04;-0.10;99.90
8420;DHT22;4247;48.550;8.822;2023-02-26T13:06:53;0.00;99.90
8420;DHT22;4247;48.550;8.822;2023-02-26T13:09:32;0.20;99.90
8420;DHT22;4247;48.550;8.822;2023-02-26T13:12:10;0.20;99.90
8420;DHT22;4247;48.550;8.822;2023-02-26T13:14:49;0.30;99.90
8420;DHT22;4247;48.550;8.822;2023-02-26T13:17:31;0.30;99.90
8420;DHT22;4247;48.550;8.822;2023-02-26T13:20:10;0.30;99.90
8420;DHT22;4247;48.550;8.822;2023-02-26T13:22:43;0.10;99.90
8420;DHT22;4247;48.550;8.822;2023-02-26T13:25:16;0.20;99.90
8420;DHT22;4247;48.550;8.822;2023-02-26T13:27:46;0.20;99.90
8420;DHT22;4247;48.550;8.822;2023-02-26T13:30:25;0.20;99.90
8420;DHT22;4247;48.550;8.822;2023-02-26T13:32:55;0.20;99.90
8420;DHT22;4247;48.550;8.822;2023-02-26T13:35:26;0.20;99.90
8420;DHT22;4247;48.550;8.822;2023-02-26T13:37:56;0.20;99.90
8420;DHT22;4247;48.550;8.822;2023-02-26T13:40:41;0.20;99.90
8420;DHT22;4247;48.550;8.822;2023-02-26T13:43:22;0.20;99.90
8420;DHT22;4247;48.550;8.822;2023-02-26T13:45:57;0.10;99.90
8420;DHT22;4247;48.550;8.822;2023-02-26T13:48:33;0.20;99.90
8420;DHT22;4247;48.550;8.822;2023-02-26T13:51:08;0.30;99.90
8420;DHT22;4247;48.550;8.822;2023-02-26T13:53:48;0.30;99.90
8420;DHT22;4247;48.550;8.822;2023-02-26T13:56:20;0.30;99.90
8420;DHT22;4247;48.550;8.822;2023-02-26T13:58:51;0.40;99.90
8420;DHT22;4247;48.550;8.822;2023-02-26T14:01:26;0.40;99.90
8420;DHT22;4247;48.550;8.822;2023-02-26T14:04:06;0.50;99.90
8420;DHT22;4247;48.550;8.822;2023-02-26T14:06:40;0.50;99.90
8420;DHT22;4247;48.550;8.822;2023-02-26T14:09:33;0.50;99.90
8420;DHT22;4247;48.550;8.822;2023-02-26T14:12:01;0.50;99.90
8420;DHT22;4247;48.550;8.822;2023-02-26T14:14:36;0.50;99.90
8420;DHT22;4247;48.550;8.822;2023-02-26T14:17:36;0.50;99.90
8420;DHT22;4247;48.550;8.822;2023-02-26T14:20:18;0.50;99.90
8420;DHT22;4247;48.550;8.822;2023-02-26T14:22:48;0.50;99.90
8420;DHT22;4247;48.550;8.822;2023-02-26T14:25:19;0.60;99.90
8420;DHT22;4247;48.550;8.822;2023-02-26T14:27:48;0.60;99.90
8420;DHT22;4247;48.550;8.822;2023-02-26T14:30:18;0.60;99.90
8420;DHT22;4247;48.550;8.822;2023-02-26T14:33:06;0.60;99.90
8420;DHT22;4247;48.550;8.822;2023-02-26T14:35:35;0.60;99.90
8420;DHT22;4247;48.550;8.822;2023-02-26T14:38:09;0.60;99.90
8420;DHT22;4247;48.550;8.822;2023-02-26T14:40:41;0.60;99.90
8420;DHT22;4247;48.550;8.822;2023-02-26T14:43:14;0.50;99.90
8420;DHT22;4247;48.550;8.822;2023-02-26T14:45:42;0.50;99.90
8420;DHT22;4247;48.550;8.822;2023-02-26T14:48:14;0.50;99.80
8420;DHT22;4247;48.550;8.822;2023-02-26T14:50:48;0.50;99.60
8420;DHT22;4247;48.550;8.822;2023-02-26T14:56:28;0.50;99.90
8420;DHT22;4247;48.550;8.822;2023-02-26T14:59:09;0.50;99.90
8420;DHT22;4247;48.550;8.822;2023-02-26T15:01:45;0.50;99.90
8420;DHT22;4247;48.550;8.822;2023-02-26T15:04:22;0.40;99.40
8420;DHT22;4247;48.550;8.822;2023-02-26T15:07:02;0.40;99.60
8420;DHT22;4247;48.550;8.822;2023-02-26T15:09:40;0.40;99.30
8420;DHT22;4247;48.550;8.822;2023-02-26T15:12:20;0.50;99.40
8420;DHT22;4247;48.550;8.822;2023-02-26T15:15:05;0.40;98.90
8420;DHT22;4247;48.550;8.822;2023-02-26T15:17:57;0.40;99.20
8420;DHT22;4247;48.550;8.822;2023-02-26T15:20:35;0.40;99.20
8420;DHT22;4247;48.550;8.822;2023-02-26T15:23:15;0.40;99.20
8420;DHT22;4247;48.550;8.822;2023-02-26T15:25:47;0.50;98.60
8420;DHT22;4247;48.550;8.822;2023-02-26T15:28:21;0.50;99.60
8420;DHT22;4247;48.550;8.822;2023-02-26T15:30:50;0.60;99.90
8420;DHT22;4247;48.550;8.822;2023-02-26T15:33:19;0.60;98.80
8420;DHT22;4247;48.550;8.822;2023-02-26T15:35:49;0.70;98.70
8420;DHT22;4247;48.550;8.822;2023-02-26T15:38:17;0.70;98.60
8420;DHT22;4247;48.550;8.822;2023-02-26T15:40:44;0.80;99.00
8420;DHT22;4247;48.550;8.822;2023-02-26T15:43:13;0.80;98.00
8420;DHT22;4247;48.550;8.822;2023-02-26T15:45:42;0.80;97.70
8420;DHT22;4247;48.550;8.822;2023-02-26T15:48:13;0.80;97.80
8420;DHT22;4247;48.550;8.822;2023-02-26T15:50:43;0.80;97.40
8420;DHT22;4247;48.550;8.822;2023-02-26T15:53:16;0.70;96.70
8420;DHT22;4247;48.550;8.822;2023-02-26T15:55:47;0.70;97.00
8420;DHT22;4247;48.550;8.822;2023-02-26T15:58:19;0.70;97.40
8420;DHT22;4247;48.550;8.822;2023-02-26T16:00:55;0.70;97.60
8420;DHT22;4247;48.550;8.822;2023-02-26T16:03:26;0.70;97.60
8420;DHT22;4247;48.550;8.822;2023-02-26T16:05:54;0.70;96.90
8420;DHT22;4247;48.550;8.822;2023-02-26T16:08:22;0.70;97.30
8420;DHT22;4247;48.550;8.822;2023-02-26T16:10:50;0.60;97.10
8420;DHT22;4247;48.550;8.822;2023-02-26T16:13:26;0.50;96.50
8420;DHT22;4247;48.550;8.822;2023-02-26T16:15:57;0.60;97.20
8420;DHT22;4247;48.550;8.822;2023-02-26T16:18:24;0.50;97.30
8420;DHT22;4247;48.550;8.822;2023-02-26T16:20:54;0.50;98.00
8420;DHT22;4247;48.550;8.822;2023-02-26T16:23:25;0.50;97.80
8420;DHT22;4247;48.550;8.822;2023-02-26T16:25:57;0.40;97.80
8420;DHT22;4247;48.550;8.822;2023-02-26T16:28:28;0.40;97.80
8420;DHT22;4247;48.550;8.822;2023-02-26T16:30:58;0.30;97.90
8420;DHT22;4247;48.550;8.822;2023-02-26T16:33:26;0.30;98.20
8420;DHT22;4247;48.550;8.822;2023-02-26T16:36:04;0.20;98.30
8420;DHT22;4247;48.550;8.822;2023-02-26T16:38:44;0.20;98.40
8420;DHT22;4247;48.550;8.822;2023-02-26T16:41:12;0.30;98.80